Agua Dulce, California
Current Conditions -  °F | °C
As of 3:56 PM on Monday 22 Dec 2014 (Local Time) from KWJF Reporting Station
Clear Clear  
Wind Chill: 16°   Ceiling: Unl
Heat Index: 16°   Visibility: 10mi
Dew Point:   Wind: 15mph
Humidity: 55%   Direction: 280°W
Pressure: 30.07"   Gusts: NA
Location:  34.513°N, 118.402°W
Report Text: KWJF 222356Z AUTO 28013KT 10SM CLR 16/07 A3007 RMK AO2 SLP180 T01560067 10189 20156 55006 TSNO
Loading
Personal Weather Stations






























Interactive Weather Map New forecast layout! Learn more

10-Day Weather Forecast

Advertisements
Track Severe Weather on mobile